createdAt,value
2018-12-03T00:02:04.109Z,58958.57
2018-12-03T00:04:32.819Z,58943.16
2018-12-03T00:07:02.576Z,58972.95
2018-12-03T00:09:31.233Z,58984.25
2018-12-03T00:11:59.912Z,58961.65
2018-12-03T00:14:28.603Z,58983.23
2018-12-03T00:16:57.406Z,58950.35
2018-12-03T00:19:26.180Z,58959.60
2018-12-03T00:21:54.849Z,58977.06
2018-12-03T00:24:23.567Z,59000.69
2018-12-03T00:26:52.317Z,58950.35
2018-12-03T00:29:21.002Z,58967.82
2018-12-03T00:31:49.800Z,58966.79
2018-12-03T00:34:18.650Z,58950.35
2018-12-03T00:36:47.401Z,58959.60
2018-12-03T00:39:16.120Z,58946.24
2018-12-03T00:41:44.860Z,58991.44
2018-12-03T00:44:13.603Z,58941.11
2018-12-03T00:46:42.308Z,58924.67
2018-12-03T00:49:10.992Z,58972.95
2018-12-03T00:51:39.678Z,58978.09
2018-12-03T00:54:08.980Z,58959.60
2018-12-03T00:56:37.725Z,58958.57
2018-12-03T00:59:08.736Z,58960.62
2018-12-03T01:01:37.417Z,58938.02
2018-12-03T01:04:06.364Z,58947.27
2018-12-03T01:06:35.204Z,58958.57
2018-12-03T01:09:08.381Z,58987.34
2018-12-03T01:11:37.403Z,58941.11
2018-12-03T01:14:06.445Z,58982.20
2018-12-03T01:16:35.269Z,58953.43
2018-12-03T01:19:05.950Z,58959.60
2018-12-03T01:21:34.764Z,58949.32
2018-12-03T01:24:05.253Z,58956.52
2018-12-03T01:26:34.022Z,58938.02
2018-12-03T01:29:03.948Z,58979.12
2018-12-03T01:31:32.861Z,58927.75
2018-12-03T01:34:02.442Z,58954.46
2018-12-03T01:36:31.227Z,58944.19
2018-12-03T01:38:59.951Z,58959.60
2018-12-03T01:41:28.680Z,58952.41
2018-12-03T01:43:57.407Z,58946.24
2018-12-03T01:46:26.157Z,58934.94
2018-12-03T01:48:55.025Z,58967.82
2018-12-03T01:51:23.785Z,58930.83
2018-12-03T01:53:52.520Z,58935.97
2018-12-03T01:56:21.186Z,58959.60
2018-12-03T01:58:50.090Z,58949.32
2018-12-03T02:01:19.362Z,58943.16
2018-12-03T02:03:48.406Z,58962.68
2018-12-03T02:06:17.316Z,58972.95
2018-12-03T02:08:46.014Z,58920.56
2018-12-03T02:11:14.896Z,58952.41
2018-12-03T02:13:43.711Z,58943.16
2018-12-03T02:16:12.590Z,58925.70
2018-12-03T02:18:41.326Z,58961.65
2018-12-03T02:21:10.032Z,58951.38
2018-12-03T02:23:38.849Z,58956.52
2018-12-03T02:26:07.516Z,58947.27
2018-12-03T02:28:36.210Z,58962.68
2018-12-03T02:31:06.517Z,58967.82
2018-12-03T02:33:35.354Z,58967.82
2018-12-03T02:36:05.856Z,58934.94
2018-12-03T02:38:34.758Z,58941.11
2018-12-03T02:41:05.365Z,58947.27
2018-12-03T02:43:34.181Z,58979.12
2018-12-03T02:46:05.239Z,58930.83
2018-12-03T02:48:34.109Z,58967.82
2018-12-03T02:51:05.375Z,58962.68
2018-12-03T02:53:34.374Z,58901.04
2018-12-03T02:56:04.606Z,58962.68
2018-12-03T02:58:33.365Z,58970.90
2018-12-03T03:01:04.449Z,58935.97
2018-12-03T03:03:33.299Z,58967.82
2018-12-03T03:06:05.838Z,58943.16
2018-12-03T03:08:34.936Z,58927.75
2018-12-03T03:11:07.125Z,58929.80
2018-12-03T03:13:35.972Z,58968.84
2018-12-03T03:16:05.764Z,58926.72
2018-12-03T03:18:34.553Z,58956.52
2018-12-03T03:21:09.212Z,58954.46
2018-12-03T03:23:38.316Z,58986.31
2018-12-03T03:26:07.159Z,58963.71
2018-12-03T03:28:35.867Z,58951.38
2018-12-03T03:31:10.310Z,58938.02
2018-12-03T03:33:39.204Z,58955.49
2018-12-03T03:36:08.079Z,58970.90
2018-12-03T03:38:36.830Z,58929.80
2018-12-03T03:41:05.877Z,58938.02
2018-12-03T03:43:34.595Z,58926.72
2018-12-03T03:46:08.734Z,58969.87
2018-12-03T03:48:37.585Z,58940.08
2018-12-03T03:51:06.399Z,58930.83
2018-12-03T03:53:35.192Z,58955.49
2018-12-03T03:56:05.625Z,58965.76
2018-12-03T03:58:34.462Z,58952.41
2018-12-03T04:01:06.708Z,58925.70
2018-12-03T04:03:35.560Z,58975.01
2018-12-03T04:06:06.199Z,58958.57
2018-12-03T04:08:34.901Z,58957.54
2018-12-03T04:11:06.263Z,58984.25
2018-12-03T04:13:35.390Z,58951.38
2018-12-03T04:16:06.908Z,58995.55
2018-12-03T04:18:35.581Z,58957.54
2018-12-03T04:21:07.196Z,58948.30
2018-12-03T04:23:35.871Z,58980.14
2018-12-03T04:26:06.732Z,58944.19
2018-12-03T04:28:35.631Z,58966.79
2018-12-03T04:31:05.370Z,58967.82
2018-12-03T04:33:34.226Z,58941.11
2018-12-03T04:36:04.744Z,58947.27
2018-12-03T04:38:33.467Z,58944.19
2018-12-03T04:41:04.968Z,58927.75
2018-12-03T04:43:33.676Z,58956.52
2018-12-03T04:46:04.309Z,58967.82
2018-12-03T04:48:33.039Z,58972.95
2018-12-03T04:51:02.836Z,58949.32
2018-12-03T04:53:31.606Z,58965.76
2018-12-03T04:56:00.463Z,58964.73
2018-12-03T04:58:29.268Z,58963.71
2018-12-03T05:00:59.895Z,58925.70
2018-12-03T05:03:28.495Z,58931.86
2018-12-03T05:05:57.279Z,58998.64
2018-12-03T05:08:26.286Z,58983.23
2018-12-03T05:10:55.118Z,58954.46
2018-12-03T05:13:23.904Z,58977.06
2018-12-03T05:15:52.921Z,58988.36
2018-12-03T05:18:21.548Z,58962.68
2018-12-03T05:20:50.576Z,58969.87
2018-12-03T05:23:19.270Z,58976.04
2018-12-03T05:25:47.906Z,58961.65
2018-12-03T05:28:16.586Z,58980.14
2018-12-03T05:30:45.222Z,58978.09
2018-12-03T05:33:13.880Z,58980.14
2018-12-03T05:35:42.529Z,58979.12
2018-12-03T05:38:11.193Z,58949.32
2018-12-03T05:40:39.983Z,58976.04
2018-12-03T05:43:08.726Z,58955.49
2018-12-03T05:45:37.332Z,58958.57
2018-12-03T05:48:07.327Z,58984.25
2018-12-03T05:50:36.764Z,58969.87
2018-12-03T05:53:06.759Z,58967.82
2018-12-03T05:55:35.435Z,58951.38
2018-12-03T05:58:06.111Z,58994.53
2018-12-03T06:00:34.910Z,58948.30
2018-12-03T06:03:06.501Z,58969.87
2018-12-03T06:05:35.261Z,58985.28
2018-12-03T06:08:06.350Z,58981.17
2018-12-03T06:10:34.989Z,58996.58
2018-12-03T06:13:06.385Z,59007.88
2018-12-03T06:15:35.051Z,58983.23
2018-12-03T06:18:07.198Z,58961.65
2018-12-03T06:20:35.821Z,58967.82
2018-12-03T06:23:06.381Z,58962.68
2018-12-03T06:25:35.574Z,58978.09
2018-12-03T06:28:05.993Z,58969.87
2018-12-03T06:30:34.681Z,58990.42
2018-12-03T06:33:05.175Z,58998.64
2018-12-03T06:35:33.837Z,58961.65
2018-12-03T06:38:03.852Z,58966.79
2018-12-03T06:40:33.407Z,58990.42
2018-12-03T06:43:03.338Z,58991.44
2018-12-03T06:45:31.979Z,58970.90
2018-12-03T06:48:20.877Z,59013.02
2018-12-03T06:50:49.563Z,58994.53
2018-12-03T06:53:18.244Z,59018.16
2018-12-03T06:55:46.932Z,59039.73
2018-12-03T06:58:16.314Z,58998.64
2018-12-03T07:00:47.119Z,59005.83
2018-12-03T07:03:15.866Z,58988.36
2018-12-03T07:05:45.808Z,58997.61
2018-12-03T07:08:14.503Z,59033.57
2018-12-03T07:10:43.268Z,59026.37
2018-12-03T07:13:18.251Z,58985.28
2018-12-03T07:15:49.698Z,58988.36
2018-12-03T07:18:18.329Z,59019.18
2018-12-03T07:20:47.237Z,59004.80
2018-12-03T07:23:15.854Z,58978.09
2018-12-03T07:25:44.502Z,59007.88
2018-12-03T07:28:13.441Z,59006.85
2018-12-03T07:30:42.118Z,59007.88
2018-12-03T07:33:10.782Z,59009.94
2018-12-03T07:35:39.419Z,59003.77
2018-12-03T07:38:08.378Z,58998.64
2018-12-03T07:40:37.030Z,58993.50
2018-12-03T07:43:06.245Z,59018.16
2018-12-03T07:45:35.206Z,58993.50
2018-12-03T07:48:08.060Z,58973.98
2018-12-03T07:50:36.715Z,59021.24
2018-12-03T07:53:05.773Z,59003.77
2018-12-03T07:55:34.407Z,59027.40
2018-12-03T07:58:05.739Z,58999.66
2018-12-03T08:00:48.115Z,58993.50
2018-12-03T08:03:16.762Z,58970.90
2018-12-03T08:05:45.760Z,58990.42
2018-12-03T08:08:14.898Z,58992.47
2018-12-03T08:10:45.806Z,58986.31
2018-12-03T08:13:15.284Z,59024.32
2018-12-03T08:15:43.943Z,58982.20
2018-12-03T08:18:16.594Z,59032.54
2018-12-03T08:20:51.387Z,58991.44
2018-12-03T08:23:41.156Z,58985.28
2018-12-03T08:26:11.822Z,58998.64
2018-12-03T08:28:40.643Z,58988.36
2018-12-03T08:31:09.317Z,58968.84
2018-12-03T08:33:37.915Z,58964.73
2018-12-03T08:36:08.032Z,58985.28
2018-12-03T08:38:37.479Z,58956.52
2018-12-03T08:41:08.001Z,58967.82
2018-12-03T08:43:36.645Z,58984.25
2018-12-03T08:46:08.023Z,58972.95
2018-12-03T08:48:41.147Z,58941.11
2018-12-03T08:51:10.843Z,58976.04
2018-12-03T08:53:39.760Z,58976.04
2018-12-03T08:56:08.898Z,58971.93
2018-12-03T08:58:37.557Z,58984.25
2018-12-03T09:01:11.374Z,58948.30
2018-12-03T09:03:40.829Z,58953.43
2018-12-03T09:06:11.208Z,58973.98
2018-12-03T09:08:39.956Z,58981.17
2018-12-03T09:11:12.662Z,58955.49
2018-12-03T09:13:41.288Z,58949.32
2018-12-03T09:16:10.406Z,58959.60
2018-12-03T09:18:40.587Z,58956.52
2018-12-03T09:21:11.269Z,58927.75
2018-12-03T09:23:40.994Z,58962.68
2018-12-03T09:26:10.693Z,58960.62
2018-12-03T09:28:39.482Z,58947.27
2018-12-03T09:31:08.197Z,58925.70
2018-12-03T09:33:37.346Z,58979.12
2018-12-03T09:36:06.821Z,58962.68
2018-12-03T09:38:46.852Z,58957.54
2018-12-03T09:41:15.523Z,58985.28
2018-12-03T09:43:45.170Z,58953.43
2018-12-03T09:46:15.525Z,58959.60
2018-12-03T09:48:44.344Z,58976.04
2018-12-03T09:51:13.150Z,58952.41
2018-12-03T09:53:41.848Z,58951.38
2018-12-03T09:56:10.623Z,58967.82
2018-12-03T09:58:39.643Z,58963.71
2018-12-03T10:01:11.819Z,58969.87
2018-12-03T10:03:42.761Z,58957.54
2018-12-03T10:06:16.341Z,58960.62
2018-12-03T10:08:46.912Z,58949.32
2018-12-03T10:11:15.510Z,58931.86
2018-12-03T10:13:44.288Z,58950.35
2018-12-03T10:16:13.052Z,58963.71
2018-12-03T10:18:42.239Z,58987.34
2018-12-03T10:21:11.488Z,58964.73
2018-12-03T10:23:40.321Z,58952.41
2018-12-03T10:26:10.956Z,58959.60
2018-12-03T10:28:39.647Z,58971.93
2018-12-03T10:31:13.751Z,58970.90
2018-12-03T10:33:42.429Z,58963.71
2018-12-03T10:36:12.048Z,58959.60
2018-12-03T10:38:42.993Z,59002.75
2018-12-03T10:41:14.082Z,58957.54
2018-12-03T10:43:42.716Z,58943.16
2018-12-03T10:46:11.895Z,58959.60
2018-12-03T10:48:40.919Z,58981.17
2018-12-03T10:51:14.220Z,58969.87
2018-12-03T10:53:42.886Z,58926.72
2018-12-03T10:56:11.586Z,58933.91
2018-12-03T10:58:43.299Z,58928.78
2018-12-03T11:01:17.226Z,58897.96
2018-12-03T11:03:51.180Z,58937.00
2018-12-03T11:06:21.938Z,58906.18
2018-12-03T11:08:50.600Z,58904.12
2018-12-03T11:11:19.318Z,58913.37
2018-12-03T11:13:48.042Z,58928.78
2018-12-03T11:16:26.495Z,58922.61
2018-12-03T11:18:56.278Z,58919.53
2018-12-03T11:21:25.489Z,58949.32
2018-12-03T11:23:54.143Z,58913.37
2018-12-03T11:26:24.811Z,58932.89
2018-12-03T11:28:54.684Z,58922.61
2018-12-03T11:31:27.315Z,58931.86
2018-12-03T11:33:55.921Z,58944.19
2018-12-03T11:36:28.718Z,58896.93
2018-12-03T11:39:05.486Z,58895.90
2018-12-03T11:41:34.171Z,58896.93
2018-12-03T11:44:03.783Z,58922.61
2018-12-03T11:46:32.429Z,58910.29
2018-12-03T11:49:02.871Z,58924.67
2018-12-03T11:51:32.505Z,58924.67
2018-12-03T11:54:02.868Z,58925.70
2018-12-03T11:56:31.542Z,58953.43
2018-12-03T11:59:00.246Z,58923.64
2018-12-03T12:01:28.926Z,58933.91
2018-12-03T12:03:57.598Z,58898.98
2018-12-03T12:06:26.313Z,58898.98
2018-12-03T12:08:55.465Z,58895.90
2018-12-03T12:11:24.114Z,58885.63
2018-12-03T12:13:52.836Z,58887.68
2018-12-03T12:16:21.689Z,58908.23
2018-12-03T12:18:51.703Z,58865.09
2018-12-03T12:21:20.921Z,58879.46
2018-12-03T12:23:49.766Z,58890.77
2018-12-03T12:26:18.942Z,58866.11
2018-12-03T12:28:47.572Z,58881.52
2018-12-03T12:31:16.220Z,58878.44
2018-12-03T12:33:44.851Z,58873.30
2018-12-03T12:36:13.473Z,58894.88
2018-12-03T12:38:42.081Z,58901.04
2018-12-03T12:41:10.745Z,58907.20
2018-12-03T12:43:39.420Z,58907.20
2018-12-03T12:46:10.465Z,58890.77
2018-12-03T12:48:39.464Z,58906.18
2018-12-03T12:51:08.116Z,58932.89
2018-12-03T12:53:36.777Z,58913.37
2018-12-03T12:56:05.773Z,58912.34
2018-12-03T12:58:34.377Z,58923.64
2018-12-03T13:01:05.497Z,58912.34
2018-12-03T13:03:34.481Z,58875.36
2018-12-03T13:06:04.947Z,58943.16
2018-12-03T13:08:33.723Z,58903.09
2018-12-03T13:11:03.948Z,58893.85
2018-12-03T13:13:32.651Z,58912.34
2018-12-03T13:16:03.405Z,58895.90
2018-12-03T13:18:32.366Z,58910.29
2018-12-03T13:21:02.374Z,58892.82
2018-12-03T13:23:31.196Z,58910.29
2018-12-03T13:26:00.267Z,58917.48
2018-12-03T13:28:29.053Z,58933.91
2018-12-03T13:30:57.747Z,58882.55
2018-12-03T13:33:26.339Z,58912.34
2018-12-03T13:35:55.187Z,58887.68
2018-12-03T13:38:23.783Z,58900.01
2018-12-03T13:40:52.479Z,58916.45
2018-12-03T13:43:21.163Z,58886.66
2018-12-03T13:45:49.794Z,58920.56
2018-12-03T13:48:19.351Z,58903.09
2018-12-03T13:50:47.993Z,58900.01
2018-12-03T13:53:18.683Z,58875.36
2018-12-03T13:55:47.366Z,58886.66
2018-12-03T13:58:16.240Z,58873.30
2018-12-03T14:00:44.905Z,58888.71
2018-12-03T14:03:18.570Z,58883.57
2018-12-03T14:06:25.029Z,58880.49
2018-12-03T14:09:19.377Z,58901.04
2018-12-03T14:12:25.516Z,58898.98
2018-12-03T14:15:37.703Z,58888.71
2018-12-03T14:18:18.917Z,58937.00
2018-12-03T14:20:49.819Z,58897.96
2018-12-03T14:23:23.083Z,58908.23
2018-12-03T14:26:22.162Z,58942.13
2018-12-03T14:28:50.667Z,58927.75
2018-12-03T14:31:19.159Z,58933.91
2018-12-03T14:33:48.009Z,58951.38
2018-12-03T14:36:16.643Z,58917.48
2018-12-03T14:38:45.222Z,58948.30
2018-12-03T14:41:15.686Z,58970.90
2018-12-03T14:43:44.317Z,58937.00
2018-12-03T14:46:12.914Z,58973.98
2018-12-03T14:48:41.772Z,58943.16
2018-12-03T14:51:10.431Z,58939.05
2018-12-03T14:53:38.993Z,58932.89
2018-12-03T14:56:12.213Z,58968.84
2018-12-03T14:58:40.780Z,58953.43
2018-12-03T15:01:09.360Z,58951.38
2018-12-03T15:03:37.869Z,58910.29
2018-12-03T15:06:07.820Z,58950.35
2018-12-03T15:08:36.931Z,58951.38
2018-12-03T15:11:05.632Z,58963.71
2018-12-03T15:13:34.223Z,58971.93
2018-12-03T15:16:04.984Z,58957.54
2018-12-03T15:18:33.687Z,58962.68
2018-12-03T15:21:06.078Z,58967.82
2018-12-03T15:23:34.579Z,58965.76
2018-12-03T15:26:04.566Z,58960.62
2018-12-03T15:28:33.090Z,58970.90
2018-12-03T15:31:02.687Z,58918.50
2018-12-03T15:33:31.430Z,58954.46
2018-12-03T15:35:59.942Z,58956.52
2018-12-03T15:38:28.496Z,58959.60
2018-12-03T15:40:56.983Z,58940.08
2018-12-03T15:43:25.602Z,58976.04
2018-12-03T15:45:54.145Z,58978.09
2018-12-03T15:48:22.683Z,58981.17
2018-12-03T15:50:52.373Z,58982.20
2018-12-03T15:53:21.169Z,58979.12
2018-12-03T15:55:49.749Z,58964.73
2018-12-03T15:58:18.506Z,58971.93
2018-12-03T16:00:47.069Z,58989.39
2018-12-03T16:03:15.608Z,58982.20
2018-12-03T16:05:44.228Z,58929.80
2018-12-03T16:08:12.763Z,58988.36
2018-12-03T16:10:41.458Z,58970.90
2018-12-03T16:13:10.148Z,58988.36
2018-12-03T16:15:38.739Z,58981.17
2018-12-03T16:18:07.369Z,58986.31
2018-12-03T16:20:35.927Z,58976.04
2018-12-03T16:23:05.114Z,59011.99
2018-12-03T16:25:33.751Z,59003.77
2018-12-03T16:28:04.546Z,59002.75
2018-12-03T16:30:33.100Z,59033.57
2018-12-03T16:33:02.759Z,59006.85
2018-12-03T16:35:31.369Z,59029.46
2018-12-03T16:37:59.936Z,59021.24
2018-12-03T16:40:38.351Z,59014.05
2018-12-03T16:43:07.234Z,59007.88
2018-12-03T16:45:35.813Z,58999.66
2018-12-03T16:48:05.392Z,59009.94
2018-12-03T16:50:34.137Z,58994.53
2018-12-03T16:53:04.312Z,59016.10
2018-12-03T16:55:34.620Z,59010.96
2018-12-03T16:58:05.109Z,59009.94
2018-12-03T17:00:33.742Z,59024.32
2018-12-03T17:03:03.742Z,59021.24
2018-12-03T17:05:34.193Z,58984.25
2018-12-03T17:08:03.724Z,59001.72
2018-12-03T17:10:32.369Z,58990.42
2018-12-03T17:13:03.365Z,58961.65
2018-12-03T17:15:31.938Z,59001.72
2018-12-03T17:18:00.541Z,58991.44
2018-12-03T17:22:43.240Z,59028.43
2018-12-03T17:25:15.752Z,58996.58
2018-12-03T17:27:44.353Z,58978.09
2018-12-03T17:30:13.014Z,58981.17
2018-12-03T17:32:41.533Z,58993.50
2018-12-03T17:35:10.131Z,58994.53
2018-12-03T17:37:38.673Z,59013.02
2018-12-03T17:40:11.511Z,59006.85
2018-12-03T17:42:40.240Z,59020.21
2018-12-03T17:45:11.506Z,59021.24
2018-12-03T17:47:40.574Z,58986.31
2018-12-03T17:50:09.181Z,59019.18
2018-12-03T17:52:39.118Z,59004.80
2018-12-03T17:55:08.212Z,59022.27
2018-12-03T17:57:36.906Z,59048.98
2018-12-03T18:00:12.166Z,58973.98
2018-12-03T18:02:40.747Z,59017.13
2018-12-03T18:05:09.375Z,59007.88
2018-12-03T18:07:37.959Z,59009.94
2018-12-03T18:10:09.024Z,59017.13
2018-12-03T18:12:37.664Z,58992.47
2018-12-03T18:15:08.119Z,58990.42
2018-12-03T18:17:36.663Z,59000.69
2018-12-03T18:20:07.285Z,59005.83
2018-12-03T18:22:35.778Z,59011.99
2018-12-03T18:25:06.538Z,58998.64
2018-12-03T18:27:35.149Z,58988.36
2018-12-03T18:30:07.831Z,59004.80
2018-12-03T18:32:36.567Z,58997.61
2018-12-03T18:35:06.276Z,58998.64
2018-12-03T18:37:34.950Z,58996.58
2018-12-03T18:40:05.953Z,59005.83
2018-12-03T18:42:35.423Z,58980.14
2018-12-03T18:45:06.692Z,59027.40
2018-12-03T18:47:35.253Z,58994.53
2018-12-03T18:50:17.607Z,58988.36
2018-12-03T18:52:46.172Z,58983.23
2018-12-03T18:55:14.720Z,59010.96
2018-12-03T18:57:44.211Z,59024.32
2018-12-03T19:00:14.744Z,59008.91
2018-12-03T19:02:43.453Z,58984.25
2018-12-03T19:05:12.104Z,58994.53
2018-12-03T19:07:40.778Z,58955.49
2018-12-03T19:10:09.347Z,58998.64
2018-12-03T19:12:37.947Z,59026.37
2018-12-03T19:15:06.809Z,58964.73
2018-12-03T19:17:35.382Z,59008.91
2018-12-03T19:20:08.714Z,58988.36
2018-12-03T19:22:37.324Z,58976.04
2018-12-03T19:25:07.626Z,58986.31
2018-12-03T19:27:36.828Z,59016.10
2018-12-03T19:30:10.724Z,58992.47
2018-12-03T19:32:39.361Z,59008.91
2018-12-03T19:35:09.003Z,59011.99
2018-12-03T19:37:37.851Z,59020.21
2018-12-03T19:40:08.253Z,59020.21
2018-12-03T19:42:36.962Z,59054.11
2018-12-03T19:45:06.867Z,59014.05
2018-12-03T19:47:37.902Z,59057.20
2018-12-03T19:50:08.568Z,59037.68
2018-12-03T19:52:37.935Z,59000.69
2018-12-03T19:55:08.807Z,59025.35
2018-12-03T19:57:38.506Z,59002.75
2018-12-03T20:00:10.942Z,59005.83
2018-12-03T20:02:39.755Z,59022.27
2018-12-03T20:05:13.909Z,59037.68
2018-12-03T20:07:42.831Z,59056.17
2018-12-03T20:10:11.738Z,59037.68
2018-12-03T20:12:40.604Z,59030.48
2018-12-03T20:15:10.853Z,59031.51
2018-12-03T20:17:43.642Z,59054.11
2018-12-03T20:20:17.940Z,59041.79
2018-12-03T20:23:01.034Z,59040.76
2018-12-03T20:25:34.833Z,59054.11
2018-12-03T20:28:08.597Z,59057.20
2018-12-03T20:31:07.485Z,59052.06
2018-12-03T20:34:47.598Z,59031.51
2018-12-03T20:38:23.206Z,59056.17
2018-12-03T20:41:30.287Z,59090.07
2018-12-03T20:44:08.444Z,59054.11
2018-12-03T20:46:49.554Z,59037.68
2018-12-03T20:49:27.134Z,59101.37
2018-12-03T20:52:05.599Z,59068.50
2018-12-03T20:54:34.403Z,59064.39
2018-12-03T20:57:04.957Z,59043.84
2018-12-03T20:59:34.466Z,59068.50
2018-12-03T21:02:06.904Z,59082.87
2018-12-03T21:04:35.471Z,59063.36
2018-12-03T21:07:05.710Z,59095.20
2018-12-03T21:09:34.546Z,59065.41
2018-12-03T21:12:04.935Z,59102.39
2018-12-03T21:14:33.515Z,59109.59
2018-12-03T21:17:03.851Z,59123.97
2018-12-03T21:19:32.620Z,59116.78
2018-12-03T21:22:03.184Z,59099.31
2018-12-03T21:24:32.036Z,59129.11
2018-12-03T21:27:00.628Z,59114.72
2018-12-03T21:29:29.544Z,59129.11
2018-12-03T21:31:58.258Z,59130.14
2018-12-03T21:34:26.842Z,59131.16
2018-12-03T21:36:55.422Z,59134.25
2018-12-03T21:39:26.438Z,59129.11
2018-12-03T21:41:55.021Z,59095.20
2018-12-03T21:44:23.619Z,59120.89
2018-12-03T21:46:52.155Z,59156.85
2018-12-03T21:49:20.688Z,59107.54
2018-12-03T21:51:49.215Z,59134.25
2018-12-03T21:54:18.005Z,59129.11
2018-12-03T21:56:46.601Z,59149.66
2018-12-03T21:59:15.114Z,59109.59
2018-12-03T22:01:43.765Z,59125.00
2018-12-03T22:04:12.292Z,59142.46
2018-12-03T22:06:41.158Z,59148.63
2018-12-03T22:09:09.827Z,59140.41
2018-12-03T22:11:38.399Z,59125.00
2018-12-03T22:14:07.071Z,59154.79
2018-12-03T22:16:39.460Z,59134.25
2018-12-03T22:19:08.083Z,59132.19
2018-12-03T22:21:36.622Z,59147.60
2018-12-03T22:24:05.551Z,59133.22
2018-12-03T22:26:34.110Z,59165.07
2018-12-03T22:29:03.963Z,59140.41
2018-12-03T22:31:32.497Z,59134.25
2018-12-03T22:34:03.285Z,59147.60
2018-12-03T22:36:32.043Z,59138.36
2018-12-03T22:39:00.558Z,59127.05
2018-12-03T22:41:29.096Z,59142.46
2018-12-03T22:43:57.620Z,59088.02
2018-12-03T22:46:26.156Z,59134.25
2018-12-03T22:48:54.645Z,59145.55
2018-12-03T22:51:23.275Z,59138.36
2018-12-03T22:53:51.793Z,59131.16
2018-12-03T22:56:20.414Z,59142.46
2018-12-03T22:58:48.937Z,59159.93
2018-12-03T23:01:21.706Z,59129.11
2018-12-03T23:03:50.238Z,59131.16
2018-12-03T23:06:19.006Z,59155.82
2018-12-03T23:08:47.575Z,59151.71
2018-12-03T23:11:16.634Z,59151.71
2018-12-03T23:13:45.195Z,59132.19
2018-12-03T23:16:13.722Z,59110.61
2018-12-03T23:18:42.337Z,59135.27
2018-12-03T23:21:12.022Z,59144.52
2018-12-03T23:23:40.619Z,59129.11
2018-12-03T23:26:09.152Z,59165.07
2018-12-03T23:28:37.640Z,59157.88
2018-12-03T23:31:06.259Z,59131.16
2018-12-03T23:33:34.856Z,59179.45
2018-12-03T23:36:04.503Z,59136.30
2018-12-03T23:38:33.680Z,59136.30
2018-12-03T23:41:04.238Z,59156.85
2018-12-03T23:43:32.864Z,59136.30
2018-12-03T23:46:03.136Z,59122.94
2018-12-03T23:48:32.132Z,59148.63
2018-12-03T23:51:00.848Z,59169.18
2018-12-03T23:53:29.331Z,59166.09
2018-12-03T23:55:57.855Z,59156.85
2018-12-03T23:58:26.957Z,59184.59
